Time;durP1;ratioP1;P1;durP2;ratioP2;P2;SDS_P1;SDS_P2;PMS_P1;PMS_P2;Temp;Humidity;BMP_temperature;BMP_pressure;BME280_temperature;BME280_humidity;BME280_pressure;Samples;Min_cycle;Max_cycle;Signal;HPM_P1;HPM_P2
2022/05/13 00:00:01;;;;;;;7.80;2.80;;;;;;;13.47;58.24;101799.06;4955647;28;20034;-73
2022/05/13 00:02:27;;;;;;;8.63;2.65;;;;;;;13.45;58.63;101785.94;4965725;28;20797;-73
2022/05/13 00:04:53;;;;;;;8.75;3.15;;;;;;;13.39;58.73;101791.91;4955224;28;20058;-73
2022/05/13 00:07:19;;;;;;;7.97;3.40;;;;;;;13.37;59.10;101782.25;4963021;28;20027;-73
2022/05/13 00:10:01;;;;;;;12.27;3.28;;;;;;;13.30;58.75;101789.00;4971162;28;20026;-73
2022/05/13 00:12:29;;;;;;;9.65;3.67;;;;;;;13.27;58.95;101783.69;4971191;28;20023;-72
2022/05/13 00:14:55;;;;;;;11.68;3.83;;;;;;;13.25;59.56;101784.50;4946315;28;20030;-72
2022/05/13 00:17:22;;;;;;;12.45;4.07;;;;;;;13.19;60.45;101787.81;4970908;28;20027;-72
2022/05/13 00:19:47;;;;;;;12.90;3.78;;;;;;;13.21;60.48;101773.94;4971169;28;20025;-72
2022/05/13 00:22:13;;;;;;;11.18;3.55;;;;;;;13.22;60.68;101780.97;4970957;28;20023;-73
2022/05/13 00:24:39;;;;;;;11.52;4.07;;;;;;;13.25;61.29;101780.13;4974601;28;20030;-73
2022/05/13 00:27:05;;;;;;;11.90;3.90;;;;;;;13.25;61.16;101777.50;4974542;28;20041;-72
2022/05/13 00:29:31;;;;;;;11.20;4.15;;;;;;;13.21;61.25;101783.53;4964638;28;20027;-72
2022/05/13 00:31:56;;;;;;;12.50;4.57;;;;;;;13.25;61.54;101776.63;4963310;28;20039;-72
2022/05/13 00:34:22;;;;;;;11.35;4.57;;;;;;;13.26;61.51;101776.69;4974354;28;20475;-73
2022/05/13 00:36:47;;;;;;;10.57;4.50;;;;;;;13.25;61.62;101774.91;4974287;28;20023;-73
2022/05/13 00:39:13;;;;;;;10.43;4.50;;;;;;;13.25;61.64;101774.91;4974190;28;20023;-72
2022/05/13 00:41:39;;;;;;;9.85;4.22;;;;;;;13.21;61.82;101776.56;4968524;28;20030;-72
2022/05/13 00:44:04;;;;;;;10.93;4.25;;;;;;;13.21;61.90;101773.06;4972742;28;20026;-72
2022/05/13 00:46:30;;;;;;;10.48;4.57;;;;;;;13.19;61.83;101773.03;4974039;28;20031;-73
2022/05/13 00:48:58;;;;;;;12.60;4.60;;;;;;;13.18;62.00;101778.22;4974196;28;20023;-73
2022/05/13 00:51:28;;;;;;;11.80;4.40;;;;;;;13.19;62.00;101772.13;4973921;28;20501;-73
2022/05/13 00:53:55;;;;;;;11.23;4.38;;;;;;;13.18;61.76;101771.25;4974206;28;20033;-73
2022/05/13 00:56:21;;;;;;;10.95;4.60;;;;;;;13.12;61.70;101773.69;4960124;28;20019;-73
2022/05/13 00:58:51;;;;;;;10.57;4.70;;;;;;;13.13;61.73;101775.44;4965317;28;20051;-73
2022/05/13 01:01:16;;;;;;;11.32;4.50;;;;;;;13.07;61.20;101777.03;4956469;28;20027;-73
2022/05/13 01:03:41;;;;;;;12.55;4.60;;;;;;;13.02;61.33;101777.78;4965393;28;20402;-73
2022/05/13 01:06:13;;;;;;;11.00;4.18;;;;;;;13.08;62.13;101769.22;4972981;28;20033;-73
2022/05/13 01:08:39;;;;;;;14.85;4.65;;;;;;;13.05;60.67;101772.63;4956347;28;20406;-73
2022/05/13 01:11:09;;;;;;;8.38;3.92;;;;;;;13.03;60.58;101779.56;4962969;28;20042;-73
2022/05/13 01:13:37;;;;;;;11.13;4.03;;;;;;;12.94;60.19;101779.28;4973566;28;20104;-73
2022/05/13 01:16:02;;;;;;;9.35;3.55;;;;;;;12.92;60.69;101769.59;4973698;28;20493;-73
2022/05/13 01:18:33;;;;;;;15.07;3.80;;;;;;;12.91;60.72;101768.72;4973430;28;20026;-73
2022/05/13 01:20:59;;;;;;;13.10;4.05;;;;;;;12.90;59.85;101766.06;4964552;28;20035;-73
2022/05/13 01:23:37;;;;;;;10.52;3.55;;;;;;;12.94;60.45;101763.56;4972928;28;20031;-73
2022/05/13 01:26:09;;;;;;;7.97;3.70;;;;;;;12.92;59.77;101762.66;4973356;28;20054;-73
2022/05/13 01:28:38;;;;;;;8.25;3.00;;;;;;;12.93;60.28;101764.41;4973376;28;20034;-73
2022/05/13 01:31:07;;;;;;;9.38;3.65;;;;;;;12.94;60.19;101763.56;4973113;28;20033;-73
2022/05/13 01:33:33;;;;;;;;;;;;;;;13.05;58.46;101766.50;4965665;28;20102;-73
2022/05/13 01:36:01;;;;;;;7.88;3.17;;;;;;;12.88;59.51;101764.28;4954208;28;20421;-73
2022/05/13 01:38:33;;;;;;;8.80;3.05;;;;;;;12.80;59.38;101767.53;4973277;28;20054;-73
2022/05/13 01:40:59;;;;;;;10.00;2.90;;;;;;;12.76;59.35;101778.72;4973195;28;20073;-73
2022/05/13 01:43:25;;;;;;;8.32;3.17;;;;;;;12.71;59.67;101778.59;4972990;28;20034;-73
2022/05/13 01:45:52;;;;;;;6.95;2.85;;;;;;;12.69;59.32;101777.69;4972951;28;20114;-73
2022/05/13 01:48:17;;;;;;;8.02;3.00;;;;;;;12.74;59.88;101777.81;4962306;28;20105;-73
2022/05/13 01:50:43;;;;;;;7.28;2.90;;;;;;;12.69;59.86;101773.31;5348748;23;20050;-73
2022/05/13 01:53:09;;;;;;;8.80;2.75;;;;;;;12.66;60.13;101768.00;4969520;28;20513;-73
2022/05/13 01:55:34;;;;;;;7.55;2.70;;;;;;;12.68;59.94;101776.78;4965015;28;20398;-73
2022/05/13 01:58:00;;;;;;;9.10;2.88;;;;;;;12.67;59.78;101769.78;4972306;28;20026;-73
2022/05/13 02:00:26;;;;;;;8.25;2.90;;;;;;;12.66;59.93;101773.25;4966727;28;20485;-73
2022/05/13 02:05:36;;;;;;;7.78;2.65;;;;;;;12.70;59.98;101769.88;4971965;28;20109;-72
2022/05/13 02:08:02;;;;;;;10.80;2.70;;;;;;;12.65;60.13;101775.81;4972443;28;20397;-73
2022/05/13 02:10:27;;;;;;;11.27;2.95;;;;;;;12.61;59.90;101763.47;4972456;28;20110;-73
2022/05/13 02:12:52;;;;;;;8.07;2.80;;;;;;;12.59;60.06;101771.28;4972469;28;20018;-72
2022/05/13 02:15:18;;;;;;;6.95;2.50;;;;;;;12.57;60.00;101775.59;4967117;28;20447;-72
2022/05/13 02:17:43;;;;;;;8.35;2.75;;;;;;;12.54;59.93;101770.25;4964062;28;20637;-72
2022/05/13 02:20:10;;;;;;;6.43;2.58;;;;;;;12.52;60.54;101771.94;4972247;28;20031;-72
2022/05/13 02:22:35;;;;;;;9.20;2.63;;;;;;;12.53;60.52;101768.50;4972688;28;20027;-72
2022/05/13 02:25:01;;;;;;;8.63;2.70;;;;;;;12.56;61.06;101765.97;4971550;28;20088;-72
2022/05/13 02:27:26;;;;;;;9.70;2.85;;;;;;;12.53;60.87;101768.50;4972294;28;20038;-72
2022/05/13 02:29:52;;;;;;;7.38;3.03;;;;;;;12.60;61.20;101766.94;4972291;28;20027;-73
2022/05/13 02:32:17;;;;;;;11.80;3.03;;;;;;;12.58;61.34;101766.88;4971575;28;20088;-73
2022/05/13 02:34:42;;;;;;;10.43;3.58;;;;;;;12.50;60.99;101764.03;4972223;28;20023;-72
2022/05/13 02:37:08;;;;;;;7.68;2.70;;;;;;;12.55;61.54;101763.31;4972100;28;20102;-73
2022/05/13 02:39:33;;;;;;;7.50;2.97;;;;;;;12.52;61.42;101764.97;4971495;28;20031;-73
2022/05/13 02:41:59;;;;;;;9.15;2.92;;;;;;;12.49;61.27;101764.00;4972307;28;20105;-72
2022/05/13 02:44:25;;;;;;;10.45;2.88;;;;;;;12.46;61.58;101764.78;4971912;28;20034;-73
2022/05/13 02:46:51;;;;;;;9.77;2.95;;;;;;;12.44;61.71;101766.47;4971663;28;20028;-73
2022/05/13 02:49:17;;;;;;;8.13;2.75;;;;;;;12.47;61.54;101757.81;4971131;28;20031;-72
2022/05/13 02:51:46;;;;;;;8.43;2.88;;;;;;;12.51;61.64;101762.31;4970873;28;20411;-73
2022/05/13 02:54:11;;;;;;;8.23;2.60;;;;;;;12.49;61.68;101758.78;4971866;28;20490;-73
2022/05/13 02:56:37;;;;;;;11.13;3.05;;;;;;;12.46;62.08;101758.69;4971706;28;20130;-73
2022/05/13 02:59:02;;;;;;;9.65;3.03;;;;;;;12.47;62.40;101757.81;4971832;28;20019;-73
2022/05/13 03:01:28;;;;;;;7.90;3.00;;;;;;;12.46;62.63;101764.78;4971678;28;20023;-73
2022/05/13 03:03:53;;;;;;;11.27;3.53;;;;;;;12.43;62.74;101755.97;4971045;28;20117;-73
2022/05/13 03:06:20;;;;;;;9.50;3.20;;;;;;;12.42;63.05;101762.03;4970913;28;20031;-73
2022/05/13 03:08:48;;;;;;;8.50;3.03;;;;;;;12.41;63.14;101770.72;4971645;28;20042;-72
2022/05/13 03:11:13;;;;;;;12.05;3.28;;;;;;;12.41;63.38;101766.38;4971803;28;20158;-73
2022/05/13 03:13:39;;;;;;;12.25;3.58;;;;;;;12.40;63.63;101764.59;4971844;28;20113;-73
2022/05/13 03:16:07;;;;;;;10.45;3.75;;;;;;;12.38;63.86;101770.63;4971445;28;20042;-72
2022/05/13 03:18:32;;;;;;;12.88;3.33;;;;;;;12.41;64.05;101763.78;4971585;28;20034;-73
2022/05/13 03:20:58;;;;;;;16.25;3.42;;;;;;;12.38;64.27;101755.81;4952693;28;20030;-72
2022/05/13 03:23:23;;;;;;;11.00;3.67;;;;;;;12.43;64.34;101755.97;4971405;28;20031;-73
2022/05/13 03:25:48;;;;;;;13.88;3.92;;;;;;;12.42;64.27;101757.69;4971371;28;20019;-72
2022/05/13 03:28:14;;;;;;;10.80;3.97;;;;;;;12.43;64.50;101749.00;4971530;28;20027;-73
2022/05/13 03:30:39;;;;;;;9.55;3.58;;;;;;;12.43;64.28;101753.38;4971441;28;20037;-73
2022/05/13 03:33:05;;;;;;;14.88;4.07;;;;;;;12.42;64.57;101751.59;4970652;28;20027;-73
2022/05/13 03:35:30;;;;;;;13.48;3.80;;;;;;;12.40;64.49;101746.31;4971398;28;20033;-73
2022/05/13 03:37:55;;;;;;;11.45;3.90;;;;;;;12.43;64.66;101753.38;4971400;28;20022;-73
2022/05/13 03:40:21;;;;;;;12.27;4.10;;;;;;;12.42;64.79;101749.84;4971600;28;20427;-72
2022/05/13 03:42:46;;;;;;;12.23;4.07;;;;;;;12.40;65.07;101754.16;4971346;28;20560;-73
2022/05/13 03:45:14;;;;;;;13.85;4.43;;;;;;;12.38;65.03;101753.19;4970648;28;20367;-73
2022/05/13 03:47:39;;;;;;;13.88;4.55;;;;;;;12.39;65.13;101761.94;4971264;28;20039;-72
2022/05/13 03:50:07;;;;;;;13.40;4.43;;;;;;;12.33;65.29;101757.41;4969990;28;20035;-72
2022/05/13 03:52:32;;;;;;;13.57;4.20;;;;;;;12.32;65.08;101751.28;4971131;28;20023;-73
2022/05/13 03:54:58;;;;;;;15.88;4.82;;;;;;;12.30;65.51;101752.97;4971362;28;20023;-73
2022/05/13 03:57:23;;;;;;;11.77;4.28;;;;;;;12.31;65.48;101752.13;4971177;28;20505;-73
2022/05/13 03:59:48;;;;;;;13.10;4.60;;;;;;;12.29;65.56;101745.97;4972988;28;20122;-72
2022/05/13 04:02:14;;;;;;;13.13;4.28;;;;;;;12.32;65.47;101760.84;4973698;28;20548;-73
2022/05/13 04:10:08;;;;;;;16.25;5.22;;;;;;;12.23;65.89;101768.41;4974723;28;20041;-74
2022/05/13 04:18:02;;;;;;;15.02;5.38;;;;;;;12.17;66.35;101759.53;4975040;28;20037;-72
2022/05/13 04:20:27;;;;;;;15.18;5.15;;;;;;;12.20;66.09;101761.38;4956981;28;20022;-72
2022/05/13 04:22:52;;;;;;;12.77;4.60;;;;;;;12.20;66.40;101748.31;4963401;28;20478;-73
2022/05/13 04:25:17;;;;;;;12.20;4.50;;;;;;;12.20;65.74;101756.13;4974411;28;20034;-72
2022/05/13 04:27:45;;;;;;;15.55;4.80;;;;;;;12.15;66.45;101755.09;4973881;28;20433;-72
2022/05/13 04:30:11;;;;;;;14.43;5.32;;;;;;;12.11;66.50;101758.47;4974272;28;20105;-72
2022/05/13 04:32:36;;;;;;;15.18;4.70;;;;;;;12.07;66.74;101753.97;4974680;28;20106;-72
2022/05/13 04:35:01;;;;;;;13.00;5.63;;;;;;;12.08;66.86;101761.88;4974267;28;20395;-73
2022/05/13 04:37:27;;;;;;;15.05;4.63;;;;;;;12.13;66.66;101762.00;4973575;28;20061;-72
2022/05/13 04:39:53;;;;;;;16.98;5.10;;;;;;;12.11;66.65;101776.75;4967142;28;20027;-72
2022/05/13 04:45:07;;;;;;;16.67;5.25;;;;;;;12.12;66.95;101775.91;4972103;28;20050;-73
2022/05/13 04:50:16;;;;;;;13.90;6.00;;;;;;;12.15;67.62;101791.66;4973822;28;20190;-72
2022/05/13 04:52:42;;;;;;;14.18;5.90;;;;;;;12.15;67.19;101789.06;4973436;28;20106;-72
2022/05/13 04:55:08;;;;;;;13.85;5.22;;;;;;;12.14;67.49;101784.69;4973871;28;20113;-72
2022/05/13 04:57:33;;;;;;;14.18;5.28;;;;;;;12.17;67.63;101784.78;4973796;28;20035;-73
2022/05/13 04:59:58;;;;;;;16.75;6.07;;;;;;;12.19;67.39;101788.31;4973810;28;20504;-72
2022/05/13 05:02:24;;;;;;;17.10;5.78;;;;;;;12.21;67.37;101789.28;4973888;28;20026;-73
2022/05/13 05:04:49;;;;;;;14.80;5.10;;;;;;;12.24;67.22;101797.22;4972963;28;20038;-73
2022/05/13 05:07:14;;;;;;;20.30;5.75;;;;;;;12.23;67.74;101803.25;4972758;28;20023;-73
2022/05/13 05:09:39;;;;;;;17.02;5.80;;;;;;;12.22;67.68;101806.72;4973166;28;20027;-73
2022/05/13 05:12:07;;;;;;;19.23;6.60;;;;;;;12.25;67.75;101809.44;4973698;28;20490;-72
2022/05/13 05:14:33;;;;;;;20.40;6.00;;;;;;;12.25;67.93;101812.06;4967519;28;20056;-74
2022/05/13 05:16:58;;;;;;;20.02;6.00;;;;;;;12.26;67.43;101803.34;4960502;28;20105;-73
2022/05/13 05:19:23;;;;;;;21.48;5.55;;;;;;;12.25;67.26;101812.06;4972152;28;20054;-73
2022/05/13 05:21:49;;;;;;;14.65;5.35;;;;;;;12.29;66.88;101813.91;4973545;28;20512;-74
2022/05/13 05:24:14;;;;;;;15.95;5.80;;;;;;;12.28;67.43;101817.38;4973465;28;20077;-73
2022/05/13 05:26:39;;;;;;;18.67;6.18;;;;;;;12.29;67.95;101820.88;4973240;28;20026;-73
2022/05/13 05:29:05;;;;;;;19.25;5.95;;;;;;;12.30;68.05;101826.16;4973495;28;20031;-73
2022/05/13 05:31:30;;;;;;;20.20;6.20;;;;;;;12.30;68.00;101823.53;4973128;28;20533;-73
2022/05/13 05:33:55;;;;;;;16.95;5.50;;;;;;;12.32;68.12;101829.69;4972034;28;20121;-74
2022/05/13 05:36:21;;;;;;;19.90;5.93;;;;;;;12.31;68.28;101835.78;4973033;28;20063;-73
2022/05/13 05:38:46;;;;;;;16.25;5.82;;;;;;;12.33;68.29;101831.47;4973243;28;20026;-73
2022/05/13 05:41:11;;;;;;;18.20;6.38;;;;;;;12.38;68.11;101835.97;4973084;28;20054;-73
2022/05/13 05:43:36;;;;;;;19.17;6.35;;;;;;;12.36;68.16;101846.38;4973155;28;20390;-73
2022/05/13 05:46:02;;;;;;;20.08;6.20;;;;;;;12.38;68.64;101835.97;4954881;28;20018;-74
2022/05/13 05:48:28;;;;;;;15.75;5.70;;;;;;;12.40;67.84;101849.94;4971734;28;20509;-73
2022/05/13 05:50:55;;;;;;;15.25;6.05;;;;;;;12.38;68.75;101865.59;4972500;28;20039;-73
2022/05/13 05:58:51;;;;;;;22.02;6.57;;;;;;;12.43;68.65;101868.38;4972793;28;20093;-74
2022/05/13 06:01:16;;;;;;;19.73;6.50;;;;;;;12.46;69.04;101869.34;4971603;28;20022;-74
2022/05/13 06:03:42;;;;;;;17.08;6.63;;;;;;;12.50;68.49;101872.97;4972088;28;20042;-74
2022/05/13 06:06:09;;;;;;;20.55;6.47;;;;;;;12.51;68.52;101870.41;4972555;28;20058;-73
2022/05/13 06:08:35;;;;;;;20.33;6.65;;;;;;;12.54;68.92;101864.34;4972555;28;20397;-73
2022/05/13 06:11:00;;;;;;;20.52;7.05;;;;;;;12.58;68.68;101879.31;4972490;28;20514;-73
2022/05/13 06:13:25;;;;;;;23.63;7.18;;;;;;;12.61;69.02;101868.94;4971974;28;20486;-73
2022/05/13 06:15:51;;;;;;;24.55;7.82;;;;;;;12.63;69.05;101867.28;4967735;28;20038;-73
2022/05/13 06:18:16;;;;;;;22.02;7.10;;;;;;;12.69;67.89;101872.69;4972456;28;20474;-73
2022/05/13 06:20:41;;;;;;;22.63;9.13;;;;;;;12.72;68.33;101874.53;4971739;28;20406;-74
2022/05/13 06:23:08;;;;;;;23.00;8.68;;;;;;;12.70;69.23;101877.09;4972383;28;20022;-74
2022/05/13 06:25:33;;;;;;;22.33;8.25;;;;;;;12.74;69.68;101883.28;4972311;28;20030;-75
2022/05/13 06:28:00;;;;;;;24.75;8.32;;;;;;;12.77;67.96;101895.59;4971785;28;20027;-73
2022/05/13 06:30:29;;;;;;;31.40;9.30;;;;;;;12.76;70.24;101889.47;4971705;28;20034;-73
2022/05/13 06:32:56;;;;;;;25.45;9.95;;;;;;;12.79;69.50;101888.66;4968269;28;20065;-73
2022/05/13 06:35:22;;;;;;;22.15;9.27;;;;;;;12.82;68.33;101889.66;4972139;28;20033;-73
2022/05/13 06:37:47;;;;;;;30.98;10.13;;;;;;;12.86;69.82;101891.53;4972339;28;20026;-74
2022/05/13 06:40:13;;;;;;;25.27;9.63;;;;;;;12.90;71.00;101892.50;4972037;28;20102;-73
2022/05/13 06:42:38;;;;;;;29.58;9.80;;;;;;;12.95;69.17;101901.41;4971371;28;20026;-73
2022/05/13 06:45:05;;;;;;;31.05;10.05;;;;;;;13.00;69.28;101902.41;4971808;28;20058;-73
2022/05/13 06:47:30;;;;;;;26.95;9.95;;;;;;;13.02;70.29;101905.97;4954468;28;20503;-74
2022/05/13 06:49:56;;;;;;;30.38;10.13;;;;;;;13.01;70.16;101901.56;4967071;28;20077;-75
2022/05/13 06:52:21;;;;;;;23.63;10.25;;;;;;;13.05;69.63;101907.81;4970221;28;20038;-74
2022/05/13 06:54:46;;;;;;;25.98;10.43;;;;;;;13.07;70.42;101905.22;4971963;28;20022;-73
2022/05/13 06:57:12;;;;;;;26.33;10.13;;;;;;;13.11;71.07;101902.75;4971586;28;20031;-74
2022/05/13 06:59:37;;;;;;;31.00;11.07;;;;;;;13.17;71.39;101904.66;4970748;28;20472;-73
2022/05/13 07:02:04;;;;;;;30.75;10.73;;;;;;;13.24;70.87;101904.00;4971510;28;20035;-72
2022/05/13 07:04:30;;;;;;;32.03;10.48;;;;;;;13.28;69.88;101905.88;4971711;28;20306;-73
2022/05/13 07:06:55;;;;;;;32.00;11.63;;;;;;;13.32;70.60;101912.94;4952798;28;20694;-73
2022/05/13 07:09:20;;;;;;;32.53;11.20;;;;;;;13.36;70.36;101909.63;4969716;28;20042;-74
2022/05/13 07:11:46;;;;;;;33.28;12.75;;;;;;;13.38;70.74;101910.56;5397750;23;20763;-74
2022/05/13 07:14:11;;;;;;;28.02;11.95;;;;;;;13.43;69.18;101912.44;4963707;28;20030;-74
2022/05/13 07:16:37;;;;;;;35.00;13.88;;;;;;;13.48;69.96;101910.81;4966985;28;20031;-73
2022/05/13 07:19:03;;;;;;;32.78;13.80;;;;;;;13.53;71.17;101904.00;4968771;28;20393;-73
2022/05/13 07:21:28;;;;;;;35.38;14.90;;;;;;;13.59;71.30;101904.16;4968972;28;20062;-72
2022/05/13 07:23:53;;;;;;;35.88;15.98;;;;;;;13.64;70.63;101909.53;4969363;28;20042;-72
2022/05/13 07:26:19;;;;;;;38.45;17.33;;;;;;;13.70;69.38;101913.22;4967998;28;20085;-75
2022/05/13 07:28:44;;;;;;;37.75;16.95;;;;;;;13.73;69.84;101908.06;4968756;28;20026;-74
2022/05/13 07:31:10;;;;;;;33.72;16.50;;;;;;;13.78;68.90;101908.19;4969276;28;20054;-73
2022/05/13 07:33:35;;;;;;;39.00;17.25;;;;;;;13.84;69.38;101912.72;4974389;28;20035;-73
2022/05/13 07:36:00;;;;;;;39.25;18.10;;;;;;;13.87;69.32;101918.03;4975400;28;20073;-73
2022/05/13 07:38:27;;;;;;;41.88;17.35;;;;;;;13.91;68.52;101917.25;4972990;28;20061;-74
2022/05/13 07:43:36;;;;;;;47.90;19.00;;;;;;;14.03;68.74;101920.22;4975464;28;20421;-73
2022/05/13 07:46:03;;;;;;;39.22;17.35;;;;;;;14.12;68.91;101918.69;4975082;28;20031;-73
2022/05/13 07:48:28;;;;;;;39.03;18.02;;;;;;;14.16;68.23;101923.16;4975239;28;20031;-75
2022/05/13 07:50:54;;;;;;;41.58;18.40;;;;;;;14.19;68.50;101916.28;4975518;28;20106;-73
2022/05/13 07:53:19;;;;;;;39.97;19.83;;;;;;;14.24;68.57;101914.66;4975139;28;20023;-73
2022/05/13 07:55:45;;;;;;;40.35;19.02;;;;;;;14.33;68.94;101919.25;4973568;28;20029;-73
2022/05/13 07:58:10;;;;;;;41.58;18.77;;;;;;;14.36;67.31;101916.69;4973329;28;20026;-73
2022/05/13 08:00:37;;;;;;;36.42;18.70;;;;;;;14.41;66.61;101920.31;4973121;28;20018;-74
2022/05/13 08:03:09;;;;;;;44.03;18.35;;;;;;;14.40;66.40;101930.78;4971616;28;20036;-74
2022/05/13 08:05:40;;;;;;;38.40;18.05;;;;;;;14.41;66.44;101932.53;4973076;28;20062;-73
2022/05/13 08:08:10;;;;;;;36.95;17.35;;;;;;;14.39;66.00;101935.13;4972904;28;20465;-74
2022/05/13 08:10:38;;;;;;;38.58;18.45;;;;;;;14.34;65.78;101935.84;4972873;28;20282;-73
2022/05/13 08:13:04;;;;;;;32.53;17.30;;;;;;;14.32;64.94;101941.03;4972043;28;20085;-73
2022/05/13 08:15:30;;;;;;;38.83;18.08;;;;;;;14.32;66.83;101942.78;4973947;28;20050;-75
2022/05/13 08:17:56;;;;;;;41.13;18.52;;;;;;;14.32;65.76;101943.66;4974704;28;20110;-74
2022/05/13 08:20:22;;;;;;;38.13;17.95;;;;;;;14.34;67.07;101947.25;4974441;28;20022;-75
2022/05/13 08:22:48;;;;;;;40.13;16.67;;;;;;;14.36;65.72;101945.53;4971934;28;20078;-74
2022/05/13 08:25:13;;;;;;;36.70;17.63;;;;;;;14.40;65.34;101939.53;4955989;28;20446;-74
2022/05/13 08:27:38;;;;;;;37.78;18.05;;;;;;;14.43;65.71;101938.72;4970020;28;20399;-71
2022/05/13 08:30:05;;;;;;;31.75;14.75;;;;;;;14.44;63.92;101953.63;4973053;28;20062;-71
2022/05/13 08:32:32;;;;;;;31.33;14.98;;;;;;;14.45;63.59;101955.38;4971698;28;20034;-72
2022/05/13 08:34:57;;;;;;;34.55;14.93;;;;;;;14.51;64.06;101942.44;4969320;28;20089;-71
2022/05/13 08:37:23;;;;;;;29.73;15.10;;;;;;;14.59;64.62;101943.50;4970529;28;20486;-72
2022/05/13 08:39:48;;;;;;;30.67;13.75;;;;;;;14.69;64.07;101942.00;4971693;28;20069;-73
2022/05/13 08:42:37;;;;;;;31.77;14.30;;;;;;;14.80;64.37;101937.00;4973478;28;20038;-73
2022/05/13 08:45:04;;;;;;;;;;;;;;;14.89;63.72;101954.75;4970202;28;20027;-74
2022/05/13 08:47:39;;;;;;;25.33;12.32;;;;;;;14.89;62.84;101962.63;4970366;28;19918;-72
2022/05/13 08:50:12;;;;;;;26.90;14.00;;;;;;;14.88;62.78;101952.97;4973477;28;20023;-72
2022/05/13 08:55:46;;;;;;;29.77;13.70;;;;;;;14.89;63.22;101952.13;4972253;28;20074;-71
2022/05/13 08:58:35;;;;;;;22.90;12.15;;;;;;;14.94;62.84;101945.22;4969834;28;20046;-71
2022/05/13 09:01:01;;;;;;;24.85;12.15;;;;;;;14.99;62.41;101948.84;4972968;28;20030;-74
2022/05/13 09:03:30;;;;;;;20.02;10.90;;;;;;;15.02;61.44;101959.41;4972155;28;20041;-71
2022/05/13 09:06:00;;;;;;;26.60;11.20;;;;;;;15.03;60.66;101950.66;4971324;28;20038;-71
2022/05/13 09:08:25;;;;;;;29.83;11.50;;;;;;;15.05;60.83;101954.25;4971189;28;20030;-72
2022/05/13 09:11:06;;;;;;;30.15;12.70;;;;;;;15.08;60.86;101949.06;4971089;28;20445;-71
2022/05/13 09:13:57;;;;;;;30.52;12.70;;;;;;;15.15;62.10;101944.84;4968111;28;20054;-71
2022/05/13 09:16:38;;;;;;;22.15;12.68;;;;;;;15.25;62.32;101951.16;4971374;28;20028;-70
2022/05/13 09:19:04;;;;;;;21.95;11.25;;;;;;;15.28;59.92;101952.13;4969600;28;20033;-71
2022/05/13 09:21:30;;;;;;;23.88;10.07;;;;;;;15.31;60.74;101953.94;4972283;28;20035;-71
2022/05/13 09:23:56;;;;;;;23.88;10.18;;;;;;;15.37;59.78;101950.56;4969221;28;20142;-71
2022/05/13 09:26:24;;;;;;;20.85;11.00;;;;;;;15.44;59.94;101948.09;4968460;28;20109;-71
2022/05/13 09:29:07;;;;;;;18.15;9.63;;;;;;;15.51;60.04;101963.97;4971142;28;20023;-70
2022/05/13 09:31:39;;;;;;;22.55;9.63;;;;;;;15.58;59.22;101966.78;4962809;28;20039;-73
2022/05/13 09:34:13;;;;;;;20.40;9.55;;;;;;;15.60;58.10;101966.81;4971215;28;20026;-72
2022/05/13 09:36:38;;;;;;;22.67;10.15;;;;;;;15.58;58.83;101960.63;4973476;28;20110;-73
2022/05/13 09:39:20;;;;;;;17.15;9.40;;;;;;;15.61;58.86;101966.84;4972422;28;20105;-72
2022/05/13 09:41:48;;;;;;;15.23;8.07;;;;;;;15.59;57.01;101973.78;4971856;28;20118;-73
2022/05/13 09:44:19;;;;;;;19.80;9.55;;;;;;;15.62;59.10;101967.72;4970782;28;20539;-73
2022/05/13 09:46:50;;;;;;;20.67;8.77;;;;;;;15.67;61.28;101971.34;4970644;28;20031;-71
2022/05/13 09:49:33;;;;;;;16.77;8.07;;;;;;;15.76;60.74;101968.00;4972880;28;20085;-70
2022/05/13 09:52:07;;;;;;;18.55;8.10;;;;;;;15.78;55.34;101980.34;4972145;28;20593;-70
2022/05/13 09:54:40;;;;;;;24.00;8.57;;;;;;;15.78;56.31;101968.91;4972079;28;20158;-71
2022/05/13 09:57:29;;;;;;;19.02;9.32;;;;;;;15.77;57.07;101978.56;4972183;28;20038;-72
2022/05/13 10:00:17;;;;;;;14.55;8.88;;;;;;;15.73;56.31;101979.34;4970329;28;20026;-70
2022/05/13 10:02:47;;;;;;;21.02;9.57;;;;;;;15.70;57.29;101981.91;4972336;28;20030;-71
2022/05/13 10:05:14;;;;;;;22.60;10.50;;;;;;;15.64;57.14;101982.66;4970794;28;20031;-72
2022/05/13 10:08:01;;;;;;;20.38;9.75;;;;;;;15.64;57.56;101976.50;4972100;28;20026;-72
2022/05/13 10:16:09;;;;;;;21.63;8.95;;;;;;;15.95;57.54;101979.81;4972080;28;20049;-73
2022/05/13 10:18:37;;;;;;;16.85;8.75;;;;;;;16.03;58.64;101965.03;4972516;28;20054;-73
2022/05/13 10:21:08;;;;;;;19.07;8.93;;;;;;;16.07;56.32;101981.78;4972324;28;20529;-74
2022/05/13 10:23:42;;;;;;;19.35;8.80;;;;;;;16.06;56.10;101978.28;4972369;28;20054;-73
2022/05/13 10:26:15;;;;;;;22.48;7.90;;;;;;;16.04;54.88;101977.34;4971728;28;20142;-72
2022/05/13 10:29:06;;;;;;;15.68;8.18;;;;;;;16.02;55.68;101978.16;4954445;28;20041;-73
2022/05/13 10:31:38;;;;;;;15.07;8.68;;;;;;;15.96;55.12;101985.09;4954866;28;20062;-73
2022/05/13 10:34:34;;;;;;;21.13;8.13;;;;;;;16.02;56.33;101976.44;4972119;28;20050;-72
2022/05/13 10:37:13;;;;;;;19.88;8.23;;;;;;;16.13;56.33;101982.81;4970823;28;20023;-73
2022/05/13 10:39:51;;;;;;;18.30;7.93;;;;;;;16.17;54.46;101979.34;4972238;28;20132;-74
2022/05/13 10:42:22;;;;;;;14.38;8.30;;;;;;;16.15;53.50;101975.81;4971856;28;20093;-73
2022/05/13 10:45:09;;;;;;;23.77;8.77;;;;;;;16.12;53.29;101974.84;4972032;28;20038;-73
2022/05/13 10:47:43;;;;;;;18.95;9.52;;;;;;;16.08;54.17;101976.56;4971412;28;20034;-73
2022/05/13 10:50:22;;;;;;;18.75;7.72;;;;;;;16.10;54.00;101974.81;4971887;28;20118;-73
2022/05/13 10:53:00;;;;;;;18.05;8.07;;;;;;;16.22;55.15;101970.66;4971007;28;20027;-73
2022/05/13 10:55:58;;;;;;;15.10;7.65;;;;;;;16.36;55.39;101969.16;4972094;28;20050;-72
2022/05/13 10:58:45;;;;;;;15.20;7.05;;;;;;;16.50;54.09;101964.16;4969184;28;20038;-73
2022/05/13 11:01:40;;;;;;;19.13;8.50;;;;;;;16.68;54.39;101971.47;4971842;28;20097;-73
2022/05/13 11:04:24;;;;;;;17.45;8.98;;;;;;;16.83;53.33;101969.09;4971800;28;20037;-72
2022/05/13 11:07:08;;;;;;;21.85;8.70;;;;;;;16.88;53.07;101979.72;4970634;28;20105;-73
2022/05/13 11:09:45;;;;;;;18.73;8.73;;;;;;;16.85;52.08;101980.50;4971590;28;20027;-72
2022/05/13 11:12:38;;;;;;;13.73;7.80;;;;;;;16.80;52.41;101976.94;4958513;28;20098;-71
2022/05/13 11:15:07;;;;;;;19.88;8.88;;;;;;;16.75;51.46;101968.06;4970004;28;20090;-72
2022/05/13 11:17:43;;;;;;;20.70;8.70;;;;;;;16.75;52.51;101975.97;4971628;28;20038;-72
2022/05/13 11:20:20;;;;;;;17.20;8.35;;;;;;;16.74;51.20;101974.19;4970632;28;20442;-72
2022/05/13 11:23:12;;;;;;;21.65;7.88;;;;;;;16.77;51.77;101982.16;4971576;28;20026;-71
2022/05/13 11:26:06;;;;;;;17.98;6.90;;;;;;;16.77;51.89;101976.00;4971678;28;20153;-72
2022/05/13 11:28:49;;;;;;;15.80;7.50;;;;;;;16.75;51.40;101978.59;4964300;28;20169;-71
2022/05/13 11:32:03;;;;;;;20.88;8.27;;;;;;;16.75;52.46;101980.34;4967982;28;20509;-71
2022/05/13 11:34:53;;;;;;;16.40;9.40;;;;;;;16.69;53.17;101984.63;4910690;29;20110;-73
2022/05/13 11:37:21;;;;;;;17.10;9.77;;;;;;;16.66;53.15;101983.72;4911634;29;20051;-72
2022/05/13 11:40:12;;;;;;;20.42;9.75;;;;;;;16.73;56.27;101974.16;4953542;28;20039;-71
2022/05/13 11:43:18;;;;;;;20.77;10.02;;;;;;;16.84;54.22;101969.97;4940573;28;20413;-73
2022/05/13 11:45:34;;;;;;;17.63;10.25;;;;;;;16.93;53.49;101969.25;4971169;28;20532;-71
2022/05/13 11:48:21;;;;;;;18.20;10.20;;;;;;;16.99;54.47;101975.50;4971435;28;20110;-71
2022/05/13 11:50:47;;;;;;;18.02;10.30;;;;;;;17.07;53.74;101964.22;4970211;28;20031;-72
2022/05/13 11:53:44;;;;;;;23.38;10.00;;;;;;;17.11;53.31;101971.28;4970333;28;20090;-73
2022/05/13 11:56:36;;;;;;;19.02;9.80;;;;;;;17.13;52.21;101973.09;4966124;28;20031;-72
2022/05/13 11:59:03;;;;;;;20.90;9.70;;;;;;;17.12;52.28;101968.69;4968663;28;20042;-72
2022/05/13 12:01:35;;;;;;;18.75;8.73;;;;;;;17.18;52.72;101975.78;4968913;28;20026;-72